ADDS TAF Data INFO
IDs: Format: Raw Decoded Include METARs

Data at: 2153 UTC 19 Feb 2018

Region: TOP
KATL 191945Z 1920/2024 16010KT P6SM SCT025 SCT060
  FM200700 14005KT 4SM BR OVC007
  FM201000 14006KT 1SM BR OVC003
  FM201600 15007KT P6SM BKN010
  FM201900 15007KT P6SM BKN025


KBOS 192111Z 1921/2024 21015G23KT P6SM BKN045 BKN090 OVC220
  FM192200 19009G19KT P6SM VCSH OVC045
  FM200000 19009KT 6SM -SHRA BR OVC030
  FM200200 20009KT 4SM -SHRA BR OVC015
  FM200400 21010KT 4SM BR VCSH OVC010
  FM200900 22008KT 5SM BR OVC020
  FM201500 23009KT P6SM BKN060


KBWI 192052Z 1921/2024 16003KT 1SM -DZ BR OVC004
  FM200300 20004KT 6SM BR OVC010
  FM200600 22007KT 3SM BR OVC010 WS020/23035KT
  FM201500 21009KT P6SM FEW025 SCT080


KCLE 192057Z 1921/2024 19015G25KT P6SM -SHRA OVC050
  FM200000 20015G30KT P6SM OVC070


KCLT 191954Z 1920/2024 00000KT P6SM OVC006
  FM192130 13003KT P6SM BKN009
  FM200200 08003KT 4SM BR BKN010
  FM200800 16003KT 1/2SM FG OVC003
  FM201300 18004KT 1SM BR OVC003
  FM201400 20005KT 6SM BR BKN003


KCVG 192058Z 1921/2024 21013G21KT P6SM BKN050
  FM192300 20011KT P6SM SCT050 BKN100
  FM200600 19012G20KT P6SM SCT025 BKN050 WS020/21050KT
  FM201500 20014G22KT P6SM BKN040
  FM201700 20017G30KT P6SM BKN040
  FM202300 20012G20KT P6SM BKN050


KDCA 192052Z 1921/2024 16007KT 4SM -DZ OVC006
  FM200300 20007KT 4SM BR BKN010
  FM200700 20007KT 3SM BR BKN010 WS020/23040KT
  FM201500 21011G18KT P6SM FEW025 SCT090


KDEN 192006Z 1920/2024 06011KT 3SM -SN BR OVC011
  TEMPO 1922/2002 3/4SM -SN BR OVC007
  FM200400 01014KT 3SM -SN BR OVC005
  FM200700 35010KT 5SM BR OVC012
  FM201000 04008KT 3SM BR SCT004 OVC008
  FM201500 11004KT P6SM SCT015 BKN025
  FM201800 08007KT P6SM SCT030 SCT150


KDFW 192104Z 1921/2024 18015G25KT P6SM VCSH BKN035
  FM192300 18016G26KT P6SM -RA VCTS SCT030 BKN045CB
  FM200200 17018KT P6SM OVC018
  FM200700 17015G25KT P6SM -SHRA OVC015
  TEMPO 2008/2012 4SM TSRA OVC015CB
  FM201700 17015G25KT 6SM SHRA VCTS OVC025CB


KDTW 192113Z 1921/2024 18008KT 3/4SM -SHRA BR VV003 WS015/23040KT
  FM192300 22013G20KT 6SM -SHRA BR BKN025 OVC040
  TEMPO 1923/2002 4SM RA BR OVC008
  FM200700 20013KT 2SM RA BR OVC006


KEWR 192034Z 1921/2024 19009KT P6SM SCT025 BKN030
  FM192200 19006KT 4SM -RA BR BKN025 OVC040 WS020/21040KT
  FM200300 20005KT 5SM BR SCT006 OVC015 WS020/23035KT
  FM200700 21005KT 2SM BR BKN006 OVC015 WS020/23035KT
  FM201200 21006KT 4SM BR SCT006 BKN020
  FM201500 22008KT 6SM BR FEW010 SCT025 BKN250
  FM201700 22010KT P6SM SCT025 BKN250


KFLL 191740Z 1918/2024 10017G27KT P6SM VCSH SCT025 BKN050
  TEMPO 1918/1920 6SM -SHRA BKN025
  FM200000 10015KT P6SM FEW015 SCT025 BKN050
  FM201400 12017G27KT P6SM FEW025 SCT050


KIAD 192052Z 1921/2024 16009KT 3SM -DZ OVC005
  FM200200 18007KT P6SM BKN010
  FM200600 19008KT 3SM BR BKN010 WS020/22035KT
  FM201500 20009KT P6SM FEW025 SCT100


KIAH 192106Z 1921/2024 16017G25KT P6SM SCT035 BKN070 OVC250
  FM200200 16014KT P6SM SCT010 BKN018
  FM200600 15012KT 6SM BR SCT008 OVC012
  TEMPO 2011/2014 4SM BR BKN008
  FM201500 16014G22KT P6SM VCSH SCT010 OVC015
  FM201800 16016G26KT P6SM VCTS BKN020CB OVC035


KJFK 192046Z 1921/2024 17010KT P6SM SCT025 BKN030
  FM192200 19008KT 4SM -RA BR BKN020 OVC040 WS020/21040KT
  FM200300 20005KT 5SM BR BKN006 OVC015 WS020/23035KT
  FM200700 21005KT 2SM BR OVC006 WS020/23035KT
  TEMPO 2009/2012 1/2SM FG
  FM201200 21008KT 3SM BR BKN006 BKN020
  FM201500 22010KT 6SM BR FEW010 BKN025
  FM201900 23010KT P6SM FEW010 SCT025 BKN250


KLAS 192048Z 1921/2024 34014G24KT P6SM SCT070 BKN100
  FM200100 34014G24KT P6SM SCT100
  FM200400 28011KT P6SM FEW120
  FM201100 25008KT P6SM SKC
  FM201800 07007KT P6SM FEW120


KLAX 192049Z 1921/2024 26022G32KT P6SM FEW012 SCT050
  FM200300 31014KT P6SM SKC
  FM200700 34008KT P6SM SKC
  FM201200 VRB03KT P6SM SKC
  FM202000 26012KT P6SM SKC


KLGA 192034Z 1921/2024 17009KT P6SM SCT025 BKN035
  FM192200 18007KT 4SM -RA BR BKN025 OVC040 WS020/21040KT
  FM200300 20005KT 5SM BR SCT006 OVC015 WS020/23035KT
  FM200700 21005KT 2SM BR BKN006 OVC015 WS020/23035KT
  TEMPO 2009/2012 1SM BR
  FM201200 21007KT 4SM BR SCT006 BKN020
  FM201500 22009KT 6SM BR FEW010 BKN025
  FM201900 23010KT P6SM SCT025 BKN250


KMCO 192057Z 1921/2024 09012KT P6SM FEW045
  FM200000 09008KT P6SM FEW025 FEW050
  FM200600 07005KT P6SM SCT015 SCT040
  FM201500 12011KT P6SM SCT030
  FM202000 11011KT P6SM SCT035 BKN050


KMDW 192128Z 1921/2024 20014G24KT 6SM BR VCSH OVC010 WS015/22050KT
  FM192200 20014G22KT 2SM -SHRA BR OVC010 WS015/22050KT
  FM200200 21013G21KT 1 1/2SM -SHRA BR VCTS OVC010CB WS015/22050KT
  FM200600 21012KT 1 1/2SM SHRA BR VCTS SCT003 OVC007CB
  TEMPO 2008/2012 1SM TSRA OVC005CB
  FM201200 21012KT 1 1/2SM SHRA BR SCT003 OVC007


KMEM 192052Z 1921/2024 19015G25KT P6SM SCT035 BKN200
  FM192300 17013G20KT P6SM SCT050 OVC200
  FM201200 18015G23KT P6SM BKN025 BKN200
  FM201600 18018G25KT P6SM BKN035 BKN200


KMIA 191740Z 1918/2024 10016G26KT P6SM VCSH SCT025 BKN050
  TEMPO 1918/1920 6SM -SHRA BKN025
  FM200000 09013KT P6SM FEW015 SCT025 BKN050
  FM201500 12016G26KT P6SM FEW025 SCT050


KMSP 192110Z 1921/2024 03015G22KT 3SM -SN BR OVC025
  TEMPO 1921/1924 5SM -PLSN BR OVC015
  FM200000 03011KT 6SM -SHSN OVC020
  FM200400 03008KT P6SM VCSH OVC015
  FM200800 03006KT 2SM -PLSN OVC010
  FM201200 35007KT 6SM BR OVC015
  PROB30 2012/2018 2SM -SN BR
  FM201800 30012G20KT P6SM OVC020


KORD 192128Z 1921/2024 20014G23KT 6SM BR VCSH OVC010 WS015/22050KT
  FM192200 20014G23KT 2SM -SHRA BR OVC010 WS015/22050KT
  FM200200 21013G21KT 1 1/2SM -SHRA BR VCTS OVC010CB WS015/22050KT
  FM200600 21012KT 1 1/2SM SHRA BR VCTS SCT003 OVC007CB
  TEMPO 2008/2012 1SM TSRA OVC005CB
  FM201200 21012KT 1 1/2SM SHRA BR SCT003 OVC007


KPDX 192112Z 1921/2018 VRB03KT P6SM BKN050
  FM192300 35005KT P6SM SCT050
  FM200400 10004KT P6SM SCT150
  FM200800 10008KT P6SM SCT050 OVC100
  FM201500 10008KT 6SM -SN SCT025 OVC050


KPHL 192101Z 1921/2024 24007KT P6SM VCSH OVC015
  FM192200 18007KT 6SM -SHRA OVC010 WS020/21035KT
  FM200100 18006KT 2SM -DZ BR OVC006 WS020/21035KT
  FM200400 19006KT 2SM -DZ BR OVC003
  FM200800 21005KT 2SM -DZ BR OVC008 WS020/24035KT
  FM201600 22007KT 5SM BR BKN020


KPHX 192032Z 1921/2024 25020G30KT P6SM BKN060 BKN080
  FM200500 26012KT P6SM SCT060
  FM200900 27006KT P6SM FEW070


KPIT 192058Z 1921/2024 21008KT P6SM VCSH BKN035 BKN090 WS020/22040KT
  FM192300 19008KT P6SM BKN040 WS020/22035KT
  FM200400 19008KT P6SM SCT100 WS020/22040KT
  FM201300 20009KT P6SM BKN050


KSAN 192056Z 1921/2024 28015G25KT P6SM BKN040
  FM200100 30012G20KT P6SM SCT015 SCT035
  FM200500 31006KT P6SM SCT040
  FM202100 27007KT P6SM SKC


KSEA 191734Z 1918/2024 35013KT P6SM FEW060
  FM192100 34011KT P6SM FEW050 SCT250
  FM200300 03006KT P6SM SCT250
  FM200600 12005KT P6SM SCT250


KSFO 192104Z 1921/2024 35012KT P6SM SCT045
  FM192200 30020G27KT P6SM SCT045
  FM200400 29011KT P6SM FEW060
  FM200700 28007KT P6SM SKC
  FM201400 28005KT P6SM SCT120
  FM202100 29011KT P6SM SCT120


KSLC 192025Z 1920/2024 33013KT 5SM -SHSN BR SCT020 BKN030
  FM192200 32010KT P6SM VCSH SCT020 BKN035
  FM201200 30006KT P6SM SCT050 BKN070


KSTL 192106Z 1921/2024 17015G25KT P6SM VCTS BKN035CB
  TEMPO 1921/1924 3SM SHRA OVC025
  FM200000 18015G25KT P6SM VCSH OVC030
  FM200400 18015G24KT 4SM -SHRA OVC020
  FM201500 19017G27KT 5SM -SHRA OVC015
  FM202100 22014G24KT 6SM -SHRA OVC025


KTPA 192058Z 1921/2024 13009KT P6SM FEW050 FEW250
  FM200200 09006KT P6SM FEW020
  FM201400 13009KT P6SM SCT025 BKN050